createdAt,value
2023-11-16T00:12:55.393Z,9.50
2023-11-16T00:28:01.870Z,6.63
2023-11-16T00:43:07.078Z,10.33
2023-11-16T00:58:11.565Z,14.90
2023-11-16T01:13:23.220Z,12.23
2023-11-16T01:28:28.283Z,12.47
2023-11-16T01:43:34.310Z,13.87
2023-11-16T01:58:39.848Z,18.83
2023-11-16T02:13:44.412Z,17.67
2023-11-16T02:28:48.814Z,17.80
2023-11-16T02:43:53.508Z,17.57
2023-11-16T02:58:57.944Z,22.53
2023-11-16T03:14:02.428Z,21.20
2023-11-16T03:29:06.900Z,15.67
2023-11-16T03:44:11.274Z,13.83
2023-11-16T03:59:17.098Z,15.97
2023-11-16T04:14:21.594Z,11.40
2023-11-16T04:29:33.615Z,13.63
2023-11-16T04:44:38.312Z,15.33
2023-11-16T04:59:42.918Z,9.20
2023-11-16T05:14:47.415Z,15.00
2023-11-16T05:29:52.070Z,9.70
2023-11-16T05:44:56.581Z,8.47
2023-11-16T06:00:02.177Z,14.80
2023-11-16T06:15:16.791Z,17.80
2023-11-16T06:30:21.450Z,19.23
2023-11-16T06:45:28.116Z,15.47
2023-11-16T07:00:32.794Z,7.60
2023-11-16T07:15:38.666Z,7.33
2023-11-16T07:30:44.293Z,8.53
2023-11-16T07:45:48.967Z,10.03
2023-11-16T08:01:05.099Z,9.83
2023-11-16T08:16:11.040Z,11.80
2023-11-16T08:31:16.724Z,16.20
2023-11-16T08:46:26.441Z,10.87
2023-11-16T09:01:31.147Z,13.40
2023-11-16T09:16:35.575Z,8.50
2023-11-16T09:31:42.295Z,7.67
2023-11-16T09:46:49.003Z,9.40
2023-11-16T10:02:09.130Z,8.87
2023-11-16T10:17:13.541Z,2.77
2023-11-16T10:32:19.334Z,5.57
2023-11-16T10:47:26.003Z,12.03
2023-11-16T11:02:30.909Z,4.63
2023-11-16T11:17:39.737Z,4.87
2023-11-16T11:32:56.820Z,26.40
2023-11-16T11:48:08.866Z,5.00
2023-11-16T12:03:13.539Z,8.57
2023-11-16T12:18:19.212Z,6.20
2023-11-16T12:33:24.816Z,3.80
2023-11-16T12:48:30.234Z,17.13
2023-11-16T13:03:43.580Z,3.47
2023-11-16T13:18:55.828Z,5.40
2023-11-16T13:34:00.468Z,2.60
2023-11-16T13:49:05.551Z,3.43
2023-11-16T14:04:10.870Z,5.73
2023-11-16T14:19:15.437Z,3.50
2023-11-16T14:34:21.240Z,2.83
2023-11-16T14:49:26.072Z,7.73
2023-11-16T15:04:33.542Z,4.83
2023-11-16T15:19:38.678Z,3.37
2023-11-16T15:34:43.206Z,3.70
2023-11-16T15:49:47.656Z,2.40
2023-11-16T16:04:52.922Z,1.00
2023-11-16T16:19:57.518Z,1.17
2023-11-16T16:35:03.291Z,0.67
2023-11-16T16:50:08.556Z,0.70
2023-11-16T17:05:13.066Z,0.70
2023-11-16T17:20:19.195Z,1.43
2023-11-16T17:35:23.771Z,1.07
2023-11-16T17:50:28.910Z,4.13
2023-11-16T18:05:33.308Z,4.57
2023-11-16T18:20:37.770Z,2.93
2023-11-16T18:35:42.901Z,2.50
2023-11-16T18:50:47.553Z,3.63
2023-11-16T19:05:51.942Z,6.53
2023-11-16T19:20:56.516Z,2.90
2023-11-16T19:36:00.966Z,3.77
2023-11-16T19:51:07.111Z,4.23
2023-11-16T20:06:11.500Z,4.37
2023-11-16T20:21:15.945Z,2.97
2023-11-16T20:36:20.548Z,3.20
2023-11-16T20:51:25.362Z,2.70
2023-11-16T21:06:31.249Z,2.47
2023-11-16T21:21:35.986Z,3.87
2023-11-16T21:36:40.550Z,2.83
2023-11-16T21:51:45.320Z,2.57
2023-11-16T22:06:49.960Z,2.87
2023-11-16T22:21:55.256Z,3.03
2023-11-16T22:36:59.724Z,3.93
2023-11-16T22:52:04.149Z,3.27
2023-11-16T23:07:10.665Z,3.33
2023-11-16T23:22:15.282Z,2.87
2023-11-16T23:37:19.718Z,3.27
2023-11-16T23:52:24.105Z,3.67
